Time;durP1;ratioP1;P1;durP2;ratioP2;P2;SDS_P1;SDS_P2;PMS_P1;PMS_P2;Temp;Humidity;BMP_temperature;BMP_pressure;BME280_temperature;BME280_humidity;BME280_pressure;Samples;Min_cycle;Max_cycle;Signal;HPM_P1;HPM_P2
2022/09/02 00:01:30;;;;;;;19.50;7.75;;;;;;;18.83;57.22;100020.16;4969135;28;20043;-86
2022/09/02 00:04:04;;;;;;;9.50;6.40;;;;;;;18.91;56.62;100016.53;4981555;28;20068;-86
2022/09/02 00:06:31;;;;;;;11.85;7.72;;;;;;;18.93;56.26;100010.97;4887011;28;20039;-86
2022/09/02 00:08:59;;;;;;;9.20;7.45;;;;;;;18.93;56.32;100010.97;4949634;28;20043;-86
2022/09/02 00:11:29;;;;;;;9.93;7.25;;;;;;;18.91;56.62;100005.78;4933530;28;20051;-86
2022/09/02 00:13:57;;;;;;;11.15;7.78;;;;;;;18.99;56.42;100012.91;4944578;28;20131;-85
2022/09/02 00:16:24;;;;;;;12.80;8.10;;;;;;;18.91;56.70;100002.25;4921285;28;20578;-86
2022/09/02 00:18:52;;;;;;;10.43;7.78;;;;;;;18.97;56.43;100005.03;4945122;28;20055;-86
2022/09/02 00:21:20;;;;;;;8.30;7.15;;;;;;;18.95;56.53;100009.75;4945045;28;20043;-85
2022/09/02 00:23:47;;;;;;;8.25;7.38;;;;;;;18.93;56.66;100010.97;4930977;28;20068;-85
2022/09/02 00:26:14;;;;;;;17.52;7.95;;;;;;;18.89;56.70;100002.44;4930820;28;20506;-86
2022/09/02 00:28:41;;;;;;;13.77;7.72;;;;;;;18.89;56.77;99998.91;4937841;28;20043;-85
2022/09/02 00:31:15;;;;;;;10.00;7.63;;;;;;;18.81;56.91;99994.47;4911410;28;20549;-85
2022/09/02 00:33:43;;;;;;;10.32;7.50;;;;;;;18.79;57.05;99999.19;4928358;28;20043;-86
2022/09/02 00:36:10;;;;;;;9.02;7.38;;;;;;;18.80;56.62;99995.47;4917879;28;20499;-85
2022/09/02 00:38:38;;;;;;;11.52;7.25;;;;;;;18.83;56.42;99998.63;4948256;28;20046;-86
2022/09/02 00:41:08;;;;;;;13.38;7.45;;;;;;;18.80;56.57;99999.00;4937649;28;20039;-85
2022/09/02 00:43:51;;;;;;;9.85;7.55;;;;;;;18.54;57.21;99993.19;4942894;28;20050;-85
2022/09/02 00:46:20;;;;;;;8.18;6.63;;;;;;;18.61;56.89;99992.28;4951027;28;20052;-85
2022/09/02 00:48:56;;;;;;;10.45;7.45;;;;;;;18.66;56.92;99992.56;5001231;28;22432;-85
2022/09/02 00:51:26;;;;;;;11.38;7.25;;;;;;;18.68;56.55;99989.69;4978828;28;20497;-85
2022/09/02 00:53:53;;;;;;;9.15;6.88;;;;;;;18.70;56.44;99993.03;4994103;28;20414;-85
2022/09/02 00:56:23;;;;;;;8.57;7.10;;;;;;;18.67;56.90;99988.00;4961850;28;20057;-85
2022/09/02 00:58:51;;;;;;;10.00;7.20;;;;;;;18.70;56.52;99986.81;4984467;28;20130;-85
2022/09/02 01:01:18;;;;;;;9.20;7.18;;;;;;;18.60;56.78;99981.72;4971004;28;20053;-85
2022/09/02 01:03:45;;;;;;;8.38;6.85;;;;;;;18.66;56.59;99983.66;4954007;28;20479;-87
2022/09/02 01:06:14;;;;;;;9.82;7.32;;;;;;;18.58;56.50;99989.97;5002577;28;20046;-88
2022/09/02 01:08:45;;;;;;;9.23;6.72;;;;;;;18.39;57.28;99985.97;4969976;28;20129;-87
2022/09/02 01:11:12;;;;;;;9.60;8.13;;;;;;;18.50;56.99;99981.16;4987214;28;20049;-88
2022/09/02 01:13:41;;;;;;;12.10;7.40;;;;;;;18.40;57.37;99979.56;4986139;28;20085;-86
2022/09/02 01:16:31;;;;;;;8.75;7.50;;;;;;;18.34;57.46;99988.34;4985647;28;20050;-87
2022/09/02 01:18:59;;;;;;;9.60;7.57;;;;;;;18.42;57.35;99982.91;4999482;28;20406;-87
2022/09/02 01:21:26;;;;;;;9.82;7.10;;;;;;;18.43;57.07;99986.41;4964757;28;20038;-87
2022/09/02 01:23:53;;;;;;;8.73;7.18;;;;;;;18.38;57.45;99981.56;5000696;28;20076;-87
2022/09/02 01:26:20;;;;;;;10.75;7.70;;;;;;;18.33;57.65;99991.22;4968858;28;20042;-86
2022/09/02 01:28:47;;;;;;;12.35;6.68;;;;;;;18.37;57.34;99984.47;4983040;28;20445;-87
2022/09/02 01:31:13;;;;;;;8.95;6.75;;;;;;;18.41;57.49;99981.22;4967085;28;20421;-87
2022/09/02 01:33:40;;;;;;;9.80;7.22;;;;;;;18.37;57.06;99985.31;4983716;28;20049;-86
2022/09/02 01:36:09;;;;;;;7.80;6.60;;;;;;;18.34;57.10;99990.19;4997914;28;20050;-86
2022/09/02 01:38:35;;;;;;;12.35;7.35;;;;;;;18.32;57.18;99987.69;4981218;28;20050;-87
2022/09/02 01:41:02;;;;;;;11.80;7.22;;;;;;;18.28;57.45;99989.06;5018768;28;20053;-87
2022/09/02 01:43:29;;;;;;;11.15;7.07;;;;;;;18.23;57.64;99986.91;4969252;28;20065;-87
2022/09/02 01:45:58;;;;;;;7.10;6.38;;;;;;;18.20;57.14;99981.09;4985503;28;20406;-89
2022/09/02 01:48:27;;;;;;;9.07;6.80;;;;;;;18.16;57.58;99985.97;4967868;28;20050;-87
2022/09/02 01:50:58;;;;;;;10.07;6.72;;;;;;;18.14;57.32;99979.97;4967392;28;20061;-87
2022/09/02 01:53:25;;;;;;;15.93;6.63;;;;;;;18.14;57.42;99971.91;5002163;28;20089;-87
2022/09/02 01:55:53;;;;;;;9.32;6.60;;;;;;;18.10;57.60;99975.97;4987101;28;20100;-87
2022/09/02 01:58:20;;;;;;;9.45;6.07;;;;;;;18.09;57.63;99978.81;4984016;28;20042;-86
2022/09/02 02:00:48;;;;;;;9.95;7.25;;;;;;;18.04;57.82;99987.44;4954473;28;20042;-87
2022/09/02 02:03:15;;;;;;;9.23;7.00;;;;;;;18.06;57.79;99981.88;4951261;28;20050;-87
2022/09/02 02:05:42;;;;;;;9.32;7.10;;;;;;;17.96;58.12;99980.28;4983888;28;20046;-86
2022/09/02 02:08:12;;;;;;;8.60;6.65;;;;;;;17.99;57.88;99985.28;4981589;28;20038;-87
2022/09/02 02:10:41;;;;;;;7.65;6.85;;;;;;;17.86;58.22;99984.19;4969808;28;20050;-87
2022/09/02 02:13:09;;;;;;;9.82;7.05;;;;;;;17.90;58.17;99982.84;4985545;28;20038;-88
2022/09/02 02:15:41;;;;;;;10.15;6.78;;;;;;;17.89;57.97;99984.69;4963715;28;20049;-87
2022/09/02 02:18:09;;;;;;;10.43;7.32;;;;;;;17.96;57.86;99980.28;4953793;28;20058;-87
2022/09/02 02:20:36;;;;;;;8.25;6.90;;;;;;;17.90;58.09;99985.53;4984614;28;20046;-86
2022/09/02 02:23:05;;;;;;;8.82;6.90;;;;;;;17.89;58.02;99984.69;4984403;28;20085;-87
2022/09/02 02:25:31;;;;;;;7.93;7.03;;;;;;;17.85;58.01;99983.38;4985447;28;20046;-87
2022/09/02 02:27:58;;;;;;;10.18;6.93;;;;;;;17.77;58.42;99978.88;4985102;28;20043;-87
2022/09/02 02:30:28;;;;;;;7.97;6.90;;;;;;;17.76;58.56;99976.38;4964003;28;20047;-86
2022/09/02 02:32:55;;;;;;;11.13;7.63;;;;;;;17.78;58.25;99985.06;4968302;28;20050;-87
2022/09/02 02:35:22;;;;;;;12.50;7.22;;;;;;;17.77;57.97;99983.41;4981203;28;20047;-87
2022/09/02 02:37:49;;;;;;;7.63;6.47;;;;;;;17.71;58.18;99989.50;4952339;28;20050;-87
2022/09/02 02:40:19;;;;;;;11.52;6.72;;;;;;;17.61;58.59;99984.34;4949933;28;20446;-86
2022/09/02 02:42:48;;;;;;;8.90;6.97;;;;;;;17.66;58.53;99978.47;4967438;28;20101;-87
2022/09/02 02:45:15;;;;;;;9.05;6.72;;;;;;;17.62;58.61;99985.19;4968699;28;20080;-87
2022/09/02 02:47:44;;;;;;;9.13;6.28;;;;;;;17.57;58.69;99988.41;4982000;28;20065;-87
2022/09/02 02:50:14;;;;;;;8.52;7.28;;;;;;;17.57;58.39;99986.53;4947437;28;20070;-87
2022/09/02 02:52:41;;;;;;;7.63;6.57;;;;;;;17.56;58.39;99982.19;5000787;28;20050;-88
2022/09/02 02:55:09;;;;;;;7.47;6.28;;;;;;;17.51;58.69;99983.75;4968357;28;20100;-86
2022/09/02 02:57:38;;;;;;;10.57;6.55;;;;;;;17.50;59.08;99982.06;4983000;28;20065;-87
2022/09/02 03:00:21;;;;;;;10.27;6.80;;;;;;;17.29;59.03;99982.69;4983287;28;20042;-88
2022/09/02 03:02:48;;;;;;;7.25;6.25;;;;;;;17.43;58.94;99989.16;4965863;28;20125;-87
2022/09/02 03:05:23;;;;;;;8.40;6.07;;;;;;;17.26;59.46;99981.19;4973916;28;20499;-87
2022/09/02 03:07:50;;;;;;;11.18;6.85;;;;;;;17.47;58.60;99975.19;4981631;28;20042;-86
2022/09/02 03:10:18;;;;;;;8.18;6.68;;;;;;;17.42;58.70;99982.13;4982792;28;20051;-88
2022/09/02 03:12:46;;;;;;;9.35;6.95;;;;;;;17.34;58.77;99986.50;4964692;28;20097;-87
2022/09/02 03:28:17;;;;;;;7.63;5.97;;;;;;;17.15;59.16;99973.53;4962128;28;20486;-86
2022/09/02 03:30:45;;;;;;;7.85;6.07;;;;;;;17.17;59.18;99978.72;4984078;28;20096;-87
2022/09/02 03:33:15;;;;;;;9.05;6.65;;;;;;;17.23;59.04;99978.88;4964804;28;20046;-88
2022/09/02 03:35:44;;;;;;;6.75;6.07;;;;;;;17.15;59.30;99976.22;4950940;28;20050;-87
2022/09/02 03:38:50;;;;;;;6.75;6.00;;;;;;;16.86;60.10;99974.16;4965895;28;20046;-87
2022/09/02 03:45:47;;;;;;;13.02;7.45;;;;;;;17.12;59.27;99974.72;4974730;28;20023;-85
2022/09/02 03:48:14;;;;;;;9.00;6.45;;;;;;;17.09;59.25;99972.38;4965916;28;20050;-85
2022/09/02 03:50:45;;;;;;;7.38;5.60;;;;;;;17.06;59.39;99972.72;4936231;28;20133;-85
2022/09/02 03:53:15;;;;;;;10.07;7.55;;;;;;;17.10;59.71;99974.06;4962324;28;20137;-85
2022/09/02 03:55:46;;;;;;;9.10;7.00;;;;;;;17.02;59.74;99976.78;4985683;28;20060;-84
2022/09/02 03:58:19;;;;;;;8.88;6.22;;;;;;;16.92;59.81;99970.78;4962319;28;20096;-85
2022/09/02 04:00:59;;;;;;;7.47;5.95;;;;;;;16.81;60.31;99976.50;4976207;28;20549;-93
2022/09/02 04:03:33;;;;;;;11.07;6.75;;;;;;;16.86;59.77;99976.84;4847840;29;20104;-91
2022/09/02 04:06:09;;;;;;;8.80;5.80;;;;;;;16.75;60.34;99975.34;4853962;29;20048;-87
2022/09/02 04:08:37;;;;;;;9.55;7.25;;;;;;;16.79;60.29;99974.03;4870294;29;20441;-88
2022/09/02 04:11:06;;;;;;;6.75;5.95;;;;;;;16.83;60.27;99964.59;4856260;29;20052;-87
2022/09/02 04:13:35;;;;;;;9.27;7.25;;;;;;;16.70;60.64;99975.00;4870375;29;20179;-89
2022/09/02 04:16:07;;;;;;;10.73;7.03;;;;;;;16.69;60.68;99968.81;4858696;29;20097;-87
2022/09/02 04:18:38;;;;;;;7.13;6.43;;;;;;;16.68;60.93;99975.19;4865888;29;20052;-86
2022/09/02 04:21:06;;;;;;;7.70;6.20;;;;;;;16.77;60.47;99970.63;4886199;29;20124;-86
2022/09/02 04:23:37;;;;;;;9.52;6.80;;;;;;;16.62;61.07;99970.50;4878536;29;20057;-86
2022/09/02 04:26:10;;;;;;;10.68;6.68;;;;;;;16.66;61.16;99962.94;4861187;29;20043;-87
2022/09/02 04:28:37;;;;;;;12.38;6.05;;;;;;;16.69;60.87;99971.50;4877907;29;20056;-91
2022/09/02 04:31:10;;;;;;;8.27;6.63;;;;;;;16.59;60.74;99968.19;4892897;29;20044;-88
2022/09/02 04:33:39;;;;;;;7.75;5.70;;;;;;;16.72;60.61;99973.00;4904727;29;20063;-88
2022/09/02 04:36:12;;;;;;;7.97;5.95;;;;;;;16.65;60.50;99986.25;4969022;28;20092;-89
2022/09/02 04:38:42;;;;;;;8.07;5.63;;;;;;;16.66;60.53;99965.63;4939070;28;20050;-88
2022/09/02 04:41:13;;;;;;;6.90;5.88;;;;;;;16.66;60.26;99971.00;4953337;28;20114;-89
2022/09/02 04:43:40;;;;;;;7.55;5.75;;;;;;;16.60;60.89;99971.69;4961288;28;20402;-89
2022/09/02 04:46:09;;;;;;;8.65;6.35;;;;;;;16.59;60.97;99972.69;4983887;28;20049;-88
2022/09/02 04:48:39;;;;;;;9.85;6.30;;;;;;;16.53;60.67;99973.38;4978645;28;20057;-88
2022/09/02 04:51:11;;;;;;;8.45;6.00;;;;;;;16.45;61.06;99971.56;4962095;28;20042;-88
2022/09/02 04:53:40;;;;;;;6.65;5.72;;;;;;;16.49;60.87;99972.91;4966018;28;20077;-88
2022/09/02 04:56:10;;;;;;;6.65;5.68;;;;;;;16.43;61.37;99974.38;4973028;28;20034;-88
2022/09/02 04:58:38;;;;;;;7.70;6.18;;;;;;;16.44;61.58;99976.09;4968509;28;20073;-88
2022/09/02 05:01:08;;;;;;;9.32;6.55;;;;;;;16.51;61.65;99973.53;4977515;28;20046;-88
2022/09/02 05:03:36;;;;;;;10.95;6.38;;;;;;;16.48;61.48;99979.25;4984467;28;20046;-87
2022/09/02 05:06:06;;;;;;;7.60;6.57;;;;;;;16.46;61.69;99970.53;4985553;28;20358;-88
2022/09/02 05:08:35;;;;;;;8.05;6.78;;;;;;;16.43;61.54;99969.03;4962007;28;20512;-88
2022/09/02 05:11:18;;;;;;;7.75;6.43;;;;;;;16.45;61.74;99980.41;4968824;28;20077;-88
2022/09/02 05:13:50;;;;;;;10.27;7.55;;;;;;;16.52;61.44;99977.09;4933403;28;20066;-87
2022/09/02 05:16:28;;;;;;;11.13;6.95;;;;;;;16.48;61.86;99976.56;4983181;28;20049;-88
2022/09/02 05:18:57;;;;;;;8.88;6.85;;;;;;;16.54;61.47;99983.09;4965223;28;20054;-88
2022/09/02 05:21:30;;;;;;;12.30;8.27;;;;;;;16.53;61.84;99970.69;4987706;28;20101;-89
2022/09/02 05:24:00;;;;;;;13.75;8.98;;;;;;;16.52;62.11;99980.59;4952283;28;20379;-89
2022/09/02 05:26:34;;;;;;;12.80;8.45;;;;;;;16.64;62.06;99976.53;5001231;28;20112;-89
2022/09/02 05:29:05;;;;;;;12.82;8.10;;;;;;;16.66;61.47;99979.91;4950272;28;20066;-89
2022/09/02 05:31:33;;;;;;;12.20;8.02;;;;;;;16.71;61.11;99979.34;4986178;28;20054;-89
2022/09/02 05:34:01;;;;;;;11.52;7.75;;;;;;;16.71;61.75;99979.34;4979320;28;20042;-88
2022/09/02 05:36:28;;;;;;;11.52;8.25;;;;;;;16.80;61.26;99988.25;4967045;28;20569;-88
2022/09/02 05:38:59;;;;;;;12.95;7.05;;;;;;;16.73;61.14;99980.03;4967101;28;20554;-88
2022/09/02 05:41:27;;;;;;;10.07;6.32;;;;;;;16.72;60.43;99981.06;4951159;28;20065;-89
2022/09/02 05:44:00;;;;;;;9.25;6.63;;;;;;;16.83;59.76;99980.69;4997618;28;20057;-89
2022/09/02 05:46:31;;;;;;;10.05;7.97;;;;;;;16.80;59.63;99988.25;4965918;28;20510;-89
2022/09/02 05:49:16;;;;;;;11.10;6.47;;;;;;;16.82;59.37;99987.09;4965943;28;20588;-89
2022/09/02 05:51:53;;;;;;;10.15;6.80;;;;;;;16.78;59.57;99983.06;4956572;28;20042;-88
2022/09/02 05:54:33;;;;;;;9.40;6.07;;;;;;;16.80;60.09;99985.59;4985985;28;20138;-90
2022/09/02 05:57:08;;;;;;;10.98;6.25;;;;;;;16.92;59.15;99994.94;4954644;28;20446;-89
2022/09/02 05:59:41;;;;;;;11.20;6.57;;;;;;;16.99;59.00;99990.53;4980464;28;20174;-89
2022/09/02 06:02:12;;;;;;;6.97;5.57;;;;;;;17.06;58.53;99991.50;4933086;28;20056;-90
2022/09/02 06:04:41;;;;;;;11.05;5.80;;;;;;;17.10;58.52;99987.47;4934907;28;20050;-89
2022/09/02 06:07:11;;;;;;;8.85;5.90;;;;;;;17.12;58.36;99985.47;4982104;28;20085;-89
2022/09/02 06:09:43;;;;;;;7.72;5.75;;;;;;;17.21;57.80;99988.94;4962511;28;20042;-89
2022/09/02 06:12:12;;;;;;;8.90;5.63;;;;;;;17.31;57.33;99980.69;4949237;28;20042;-89
2022/09/02 06:14:39;;;;;;;8.77;6.07;;;;;;;17.30;56.74;99981.66;4929732;28;20050;-90
2022/09/02 06:17:07;;;;;;;7.18;5.57;;;;;;;17.34;57.23;99981.16;4965806;28;20042;-89
2022/09/02 06:19:43;;;;;;;8.52;5.95;;;;;;;17.28;56.34;99986.41;4962353;28;20327;-89
2022/09/02 06:22:10;;;;;;;6.63;5.30;;;;;;;17.40;56.37;99982.28;4947313;28;20057;-89
2022/09/02 06:24:40;;;;;;;6.57;4.95;;;;;;;17.34;56.09;99983.81;4990731;28;20053;-90
2022/09/02 06:27:11;;;;;;;9.57;5.43;;;;;;;17.43;55.99;99986.47;4968993;28;20046;-89
2022/09/02 06:29:42;;;;;;;7.97;5.18;;;;;;;17.45;55.80;99979.06;4965882;28;20057;-90
2022/09/02 06:32:09;;;;;;;8.02;5.60;;;;;;;17.52;55.58;99980.03;4970844;28;20068;-89
2022/09/02 06:34:38;;;;;;;5.80;5.13;;;;;;;17.43;55.58;99981.09;4965289;28;20054;-89
2022/09/02 06:37:05;;;;;;;8.82;5.30;;;;;;;17.44;55.87;99980.94;4980304;28;20121;-89
2022/09/02 06:39:37;;;;;;;8.88;5.97;;;;;;;17.56;55.91;99976.00;4987514;28;20057;-89
2022/09/02 06:42:04;;;;;;;9.98;5.22;;;;;;;17.49;55.77;99983.09;4963643;28;20039;-90
2022/09/02 06:44:42;;;;;;;8.35;5.18;;;;;;;17.45;55.97;99979.91;4951842;28;20515;-89
2022/09/02 06:47:09;;;;;;;5.68;5.07;;;;;;;17.51;55.54;99983.75;4984076;28;20129;-88
2022/09/02 06:49:37;;;;;;;7.40;5.88;;;;;;;17.59;55.91;99983.69;4963406;28;20046;-90
2022/09/02 06:52:05;;;;;;;6.97;4.97;;;;;;;17.65;55.56;99979.47;4981836;28;21074;-90
2022/09/02 06:54:35;;;;;;;6.68;4.93;;;;;;;17.71;55.72;99981.44;4968323;28;20129;-89
2022/09/02 06:57:07;;;;;;;11.80;5.00;;;;;;;17.77;55.40;99970.81;4981856;28;20411;-89
2022/09/02 06:59:36;;;;;;;11.77;5.15;;;;;;;17.82;55.55;99970.31;4994076;28;20122;-89
2022/09/02 07:02:04;;;;;;;6.75;5.25;;;;;;;17.85;55.33;99975.31;4951826;28;20042;-89
2022/09/02 07:07:22;;;;;;;8.38;5.47;;;;;;;18.03;55.25;99960.75;4983007;28;20066;-88
2022/09/02 07:09:58;;;;;;;8.52;5.18;;;;;;;18.02;55.05;99962.59;4981007;28;20121;-90
2022/09/02 07:12:26;;;;;;;10.60;5.03;;;;;;;18.03;55.22;99966.13;4951078;28;20093;-90
2022/09/02 07:15:01;;;;;;;6.85;4.60;;;;;;;18.03;54.77;99958.88;4961574;28;20518;-89
2022/09/02 07:17:35;;;;;;;6.88;4.60;;;;;;;18.08;54.98;99964.56;4963942;28;20058;-89
2022/09/02 07:20:06;;;;;;;9.18;4.68;;;;;;;18.18;54.91;99967.81;4968662;28;20049;-89
2022/09/02 07:22:40;;;;;;;7.35;4.55;;;;;;;18.30;54.73;99960.16;4951577;28;20132;-89
2022/09/02 07:25:09;;;;;;;6.97;4.80;;;;;;;18.33;54.23;99961.66;4964584;28;20049;-89
2022/09/02 07:27:36;;;;;;;5.05;4.05;;;;;;;18.37;54.40;99958.41;4962607;28;20050;-90
2022/09/02 07:30:05;;;;;;;7.43;4.85;;;;;;;18.46;54.42;99953.78;4966940;28;20066;-89
2022/09/02 07:32:35;;;;;;;8.70;4.25;;;;;;;18.48;54.40;99949.06;4947053;28;20048;-89
2022/09/02 07:35:04;;;;;;;7.18;4.50;;;;;;;18.55;54.05;99949.16;4968567;28;20043;-89
2022/09/02 07:37:33;;;;;;;6.28;4.30;;;;;;;18.53;53.84;99946.66;4963596;28;20150;-89
2022/09/02 07:40:04;;;;;;;5.22;3.85;;;;;;;18.61;53.50;99949.25;4998971;28;20046;-89
2022/09/02 07:42:31;;;;;;;5.68;3.80;;;;;;;18.68;53.54;99943.13;4959513;28;20042;-89
2022/09/02 07:45:00;;;;;;;6.68;3.75;;;;;;;18.77;53.47;99950.09;4983561;28;20414;-89
2022/09/02 07:47:27;;;;;;;4.90;3.78;;;;;;;18.83;53.29;99936.75;4986893;28;20076;-89
2022/09/02 07:49:54;;;;;;;4.65;3.42;;;;;;;18.89;53.29;99943.25;4935150;28;20105;-89
2022/09/02 07:52:41;;;;;;;5.70;3.58;;;;;;;18.97;53.61;99939.59;4925455;28;20434;-88
2022/09/02 07:55:11;;;;;;;6.53;3.83;;;;;;;19.00;53.34;99929.28;4982009;28;20047;-88
2022/09/02 07:57:42;;;;;;;5.20;3.92;;;;;;;19.04;53.09;99927.91;4969341;28;20053;-89
2022/09/02 08:00:12;;;;;;;4.22;3.20;;;;;;;19.11;52.80;99935.22;4952584;28;20042;-89
2022/09/02 08:02:45;;;;;;;4.97;3.42;;;;;;;19.15;52.84;99934.66;4983169;28;20509;-88
2022/09/02 08:05:17;;;;;;;3.95;3.33;;;;;;;19.17;52.66;99926.41;4982599;28;20054;-89
2022/09/02 08:07:44;;;;;;;6.28;3.25;;;;;;;19.21;52.69;99938.44;4985244;28;20057;-89
2022/09/02 08:10:11;;;;;;;4.18;2.80;;;;;;;19.23;52.63;99929.19;4967384;28;20061;-89
2022/09/02 08:12:40;;;;;;;3.40;3.10;;;;;;;19.30;52.47;99926.53;5017964;28;20042;-87
2022/09/02 08:15:09;;;;;;;3.30;2.90;;;;;;;19.32;52.43;99927.19;4972607;28;20054;-88
2022/09/02 08:17:39;;;;;;;4.35;2.85;;;;;;;19.37;52.24;99929.31;4937456;28;20054;-88
2022/09/02 08:20:07;;;;;;;4.90;3.20;;;;;;;19.42;52.12;99933.09;4968686;28;20053;-88
2022/09/02 08:22:38;;;;;;;4.17;2.80;;;;;;;19.45;52.24;99930.03;4969065;28;20051;-88
2022/09/02 08:25:06;;;;;;;7.03;3.42;;;;;;;19.47;52.02;99930.66;4982940;28;20473;-89
2022/09/02 08:27:34;;;;;;;5.15;2.80;;;;;;;19.51;52.07;99923.03;4987145;28;20057;-88
2022/09/02 08:30:01;;;;;;;7.80;3.10;;;;;;;19.54;52.33;99922.66;4980646;28;20465;-87
2022/09/02 08:32:33;;;;;;;4.40;2.90;;;;;;;19.56;52.00;99923.28;4969700;28;20045;-88
2022/09/02 08:35:01;;;;;;;6.25;3.88;;;;;;;19.63;51.85;99915.28;4981473;28;20513;-88
2022/09/02 08:37:30;;;;;;;4.80;3.03;;;;;;;19.63;51.71;99920.66;5001830;28;20042;-88
2022/09/02 08:39:57;;;;;;;10.65;3.95;;;;;;;19.64;51.65;99920.50;4970958;28;20101;-88
2022/09/02 08:42:30;;;;;;;3.95;3.17;;;;;;;19.65;51.45;99918.63;4959017;28;20054;-88
2022/09/02 08:45:12;;;;;;;6.43;2.92;;;;;;;19.62;50.88;99925.22;4989316;28;20042;-88
2022/09/02 08:47:42;;;;;;;8.18;3.10;;;;;;;19.71;50.56;99907.09;4995420;28;20050;-89
2022/09/02 08:50:13;;;;;;;4.35;2.70;;;;;;;19.74;50.92;99909.41;4982763;28;20057;-88
2022/09/02 08:53:03;;;;;;;2.55;2.30;;;;;;;19.70;50.78;99905.44;4954288;28;20049;-87
2022/09/02 08:55:54;;;;;;;7.05;2.45;;;;;;;19.73;50.73;99905.88;5016450;28;20073;-88
2022/09/02 08:58:26;;;;;;;4.00;2.72;;;;;;;19.88;50.74;99905.78;4976302;28;20523;-88
2022/09/02 09:01:16;;;;;;;4.40;3.23;;;;;;;19.82;50.12;99908.44;4953626;28;20049;-88
2022/09/02 09:04:05;;;;;;;6.22;2.78;;;;;;;19.87;50.23;99897.91;4954941;28;20069;-88
2022/09/02 09:06:44;;;;;;;4.47;2.38;;;;;;;19.97;50.03;99892.19;4970652;28;20482;-87
2022/09/02 09:09:35;;;;;;;2.33;2.00;;;;;;;19.93;49.91;99897.97;4958402;28;20052;-88
2022/09/02 09:12:13;;;;;;;4.47;2.95;;;;;;;20.07;50.27;99895.38;4977045;28;20042;-88
2022/09/02 09:14:45;;;;;;;5.88;2.70;;;;;;;20.09;49.73;99896.00;4952120;28;20053;-88
2022/09/02 09:17:50;;;;;;;2.38;2.17;;;;;;;20.03;49.59;99892.25;4981536;28;20596;-88
2022/09/02 09:20:23;;;;;;;4.75;2.53;;;;;;;20.11;49.28;99886.69;4929849;28;20406;-88
2022/09/02 09:22:57;;;;;;;3.15;2.35;;;;;;;20.15;49.05;99889.84;4975955;28;20106;-88
2022/09/02 09:25:28;;;;;;;4.40;2.28;;;;;;;20.21;48.83;99883.66;4995834;28;20481;-89
2022/09/02 09:27:59;;;;;;;3.78;2.58;;;;;;;20.20;48.70;99873.91;5000761;28;20046;-88
2022/09/02 09:30:27;;;;;;;3.38;1.80;;;;;;;20.24;48.92;99883.25;4953590;28;20116;-87
2022/09/02 09:33:03;;;;;;;9.45;2.20;;;;;;;20.23;48.25;99881.59;4979862;28;20038;-88
2022/09/02 09:35:48;;;;;;;3.70;2.15;;;;;;;20.19;48.01;99868.72;4958657;28;20054;-88
2022/09/02 09:38:15;;;;;;;5.60;2.35;;;;;;;20.30;47.54;99873.53;4964655;28;20046;-89
2022/09/02 09:40:42;;;;;;;2.10;1.90;;;;;;;20.31;47.58;99861.72;4947991;28;20549;-88
2022/09/02 09:43:10;;;;;;;6.72;2.28;;;;;;;20.34;47.80;99870.25;4984491;28;20517;-88
2022/09/02 09:45:41;;;;;;;3.65;2.03;;;;;;;20.37;47.38;99877.94;4970928;28;20109;-87
2022/09/02 09:48:22;;;;;;;4.55;2.00;;;;;;;20.29;46.19;99867.31;4962278;28;20494;-87
2022/09/02 09:51:10;;;;;;;3.78;2.03;;;;;;;20.25;44.68;99851.72;4977602;28;20557;-88
2022/09/02 09:53:39;;;;;;;3.78;2.00;;;;;;;20.39;46.61;99861.56;4936589;28;20046;-87
2022/09/02 09:56:21;;;;;;;2.10;1.90;;;;;;;20.45;46.90;99858.06;4985060;28;20038;-88
2022/09/02 09:58:49;;;;;;;4.13;2.20;;;;;;;20.45;46.16;99855.38;4980940;28;20050;-88
2022/09/02 10:01:18;;;;;;;1.70;1.60;;;;;;;20.50;46.49;99862.88;4952022;28;20041;-87
2022/09/02 10:03:56;;;;;;;4.70;2.10;;;;;;;20.48;45.55;99851.44;4962821;28;20218;-87
2022/09/02 10:06:32;;;;;;;3.92;2.30;;;;;;;20.48;45.39;99854.13;4953273;28;20047;-88
2022/09/02 10:09:01;;;;;;;3.20;1.77;;;;;;;20.53;45.73;99859.75;4962386;28;20442;-86
2022/09/02 10:11:33;;;;;;;5.95;1.95;;;;;;;20.57;45.50;99867.28;4978031;28;20065;-88
2022/09/02 10:14:05;;;;;;;2.65;1.85;;;;;;;20.56;43.59;99862.13;4950039;28;20050;-86
2022/09/02 10:16:50;;;;;;;3.00;1.80;;;;;;;20.55;42.78;99849.63;4910316;28;20154;-87
2022/09/02 10:19:36;;;;;;;2.85;1.80;;;;;;;20.50;40.98;99847.50;4932645;28;20479;-86
2022/09/02 10:22:22;;;;;;;4.93;1.52;;;;;;;20.55;42.89;99852.34;4980658;28;20513;-86
2022/09/02 10:29:28;;;;;;;3.63;1.60;;;;;;;20.55;42.20;99845.06;4907297;28;20050;-87
2022/09/02 10:32:05;;;;;;;1.40;1.30;;;;;;;20.68;42.43;99835.38;4920372;28;20042;-86
2022/09/02 10:35:28;;;;;;;2.55;1.88;;;;;;;20.64;42.17;99815.25;4972645;28;20427;-86
2022/09/02 10:38:09;;;;;;;2.03;1.50;;;;;;;20.72;42.85;99823.16;4908975;28;20506;-87
2022/09/02 10:40:44;;;;;;;2.35;1.50;;;;;;;20.75;41.96;99831.66;4977748;28;20050;-86
2022/09/02 10:43:28;;;;;;;1.95;1.70;;;;;;;20.74;41.25;99829.19;5013886;28;20051;-87
2022/09/02 10:45:59;;;;;;;3.58;1.63;;;;;;;20.79;42.04;99822.16;4970894;28;20057;-85
2022/09/02 10:48:32;;;;;;;3.75;1.80;;;;;;;20.83;41.86;99837.94;4951531;28;20034;-87
2022/09/02 10:51:17;;;;;;;3.15;1.67;;;;;;;20.81;41.33;99830.00;4994040;28;20057;-86
2022/09/02 10:53:53;;;;;;;3.05;1.67;;;;;;;20.85;41.63;99816.97;4935642;28;20046;-85
2022/09/02 10:56:26;;;;;;;2.83;1.70;;;;;;;20.87;41.19;99807.63;4993720;28;20414;-87
2022/09/02 10:58:55;;;;;;;4.63;1.92;;;;;;;20.93;41.35;99804.09;5007390;28;20047;-86
2022/09/02 11:01:32;;;;;;;2.55;1.92;;;;;;;20.94;41.12;99807.63;4985268;28;20056;-86
2022/09/02 11:04:12;;;;;;;2.08;1.70;;;;;;;20.93;40.89;99793.31;4969546;28;20046;-86
2022/09/02 11:06:40;;;;;;;3.30;2.10;;;;;;;21.00;41.15;99799.56;4991890;28;20097;-86
2022/09/02 11:09:37;;;;;;;3.63;1.60;;;;;;;21.00;40.38;99794.16;4973900;28;20050;-86
2022/09/02 11:12:27;;;;;;;4.20;1.75;;;;;;;20.98;39.93;99776.50;4982521;28;20455;-87
2022/09/02 11:15:17;;;;;;;2.72;1.90;;;;;;;20.99;40.44;99776.31;4908413;28;20051;-87
2022/09/02 11:18:07;;;;;;;2.47;1.70;;;;;;;21.02;40.77;99777.78;4956682;28;20463;-87
2022/09/02 11:20:41;;;;;;;3.40;1.50;;;;;;;21.13;40.88;99774.44;4900670;28;20411;-87
2022/09/02 11:23:30;;;;;;;3.50;1.85;;;;;;;21.10;39.97;99768.66;4900621;28;20168;-85
2022/09/02 11:26:07;;;;;;;2.22;1.50;;;;;;;21.16;40.14;99762.41;4945022;28;20043;-86
2022/09/02 11:28:46;;;;;;;2.55;1.90;;;;;;;21.16;39.93;99762.41;4897984;28;20059;-86
2022/09/02 11:31:43;;;;;;;4.22;2.00;;;;;;;21.14;40.02;99756.38;4954743;28;20491;-87
2022/09/02 11:34:39;;;;;;;2.70;1.70;;;;;;;21.17;39.83;99746.00;4900017;28;20567;-86
2022/09/02 11:37:08;;;;;;;3.90;2.00;;;;;;;21.30;39.12;99747.88;4942422;28;20522;-86
2022/09/02 11:39:50;;;;;;;4.57;1.90;;;;;;;21.22;39.07;99754.31;4963302;28;20641;-86
2022/09/02 11:43:05;;;;;;;4.57;1.80;;;;;;;21.21;38.17;99743.72;4940900;28;20059;-85
2022/09/02 11:45:55;;;;;;;2.17;1.48;;;;;;;21.24;39.01;99744.16;4926892;28;20514;-86
2022/09/02 11:48:22;;;;;;;2.40;1.80;;;;;;;21.34;38.86;99746.41;4907759;28;20043;-86
2022/09/02 11:51:04;;;;;;;2.15;1.60;;;;;;;21.34;38.85;99743.72;4982681;28;20046;-85
2022/09/02 11:53:40;;;;;;;1.93;1.73;;;;;;;21.34;39.53;99737.47;4981228;28;20479;-88
2022/09/02 11:56:12;;;;;;;2.53;2.05;;;;;;;21.40;38.95;99744.81;4970446;28;20046;-85
2022/09/02 11:58:46;;;;;;;4.82;1.80;;;;;;;21.42;38.89;99737.28;5012104;28;20506;-87
2022/09/02 12:01:22;;;;;;;3.05;1.77;;;;;;;21.42;38.77;99737.28;4985738;28;20105;-88
2022/09/02 12:04:18;;;;;;;3.55;1.80;;;;;;;21.38;36.91;99739.59;4965494;28;20050;-88
2022/09/02 12:07:05;;;;;;;3.63;1.60;;;;;;;21.50;38.80;99734.41;4900561;28;20042;-88
2022/09/02 12:09:54;;;;;;;4.70;1.70;;;;;;;21.50;38.40;99737.09;4981797;28;20054;-88
2022/09/02 12:12:37;;;;;;;3.75;1.65;;;;;;;21.51;38.48;99729.81;4966240;28;20046;-87
2022/09/02 12:15:04;;;;;;;5.20;1.63;;;;;;;21.58;38.91;99728.78;4950934;28;20046;-88
2022/09/02 12:17:58;;;;;;;3.97;1.60;;;;;;;21.51;38.10;99724.41;4982210;28;20379;-86
2022/09/02 12:20:40;;;;;;;2.03;1.58;;;;;;;21.55;37.96;99726.50;4948958;28;20050;-87
2022/09/02 12:23:47;;;;;;;3.90;1.90;;;;;;;21.56;37.71;99721.91;4987702;28;20502;-86